Αναφορές Αεροδρομίων

 

KSJC - San Jose, California, USA
Distance from station: ΒΑ 14km
Ενημερώθηκε: 31/05/2020 14:53
Αίθριος
Αίθριος
 Ανεμος από calm
Ανεμος: Απνοια
Θερμοκρασία: 14°C
Σημείο Δρόσου: 10°C
Υγρασία: 77%
Βαρόμετρο: 1014.6 hPa
Clouds: Αίθριος
Visibility: 16 km
2020/05/31 11:53 KSJC 311153Z AUTO 00000KT 10SM CLR 14/10 A2996 RMK AO2 SLP144 T01390100 10167 20139 56002
KNUQ - Moffett Nas/Mtn, California, USA
Distance from station: Β 14km
Ενημερώθηκε: 31/05/2020 15:15
Συννεφιά
Συννεφιά
 Ανεμος από calm
Ανεμος: Απνοια
Θερμοκρασία: 16°C
Σημείο Δρόσου: 12°C
Υγρασία: 77%
Βαρόμετρο: 1014.2 hPa
Clouds: Συννεφιά
Visibility: 16 km
Cloud details: Συννεφιά 457 m
2020/05/31 12:15 KNUQ 311215Z AUTO 00000KT 10SM OVC015 16/12 A2995 RMK AO2
 
KPAO - Palo Alto, California, USA
Distance from station: ΒΒΔ 23km
Ενημερώθηκε: 31/05/2020 01:47
NOT Current
Συννεφιά
Συννεφιά
 Ανεμος από Ν
Ανεμος: Ν 17 km/h
Θερμοκρασία: 22°C
Σημείο Δρόσου: 11°C
Υγρασία: 50%
Βαρόμετρο: 1013.2 hPa
Clouds: Συννεφιά
Visibility: 16 km
Cloud details: Συννεφιά 914 m
2020/05/30 22:47 KPAO 302247Z 19009KT 10SM OVC030 22/11 A2992 RMK LAST GPS/VOR N/A AT NIGHT.
KRHV - San Jose/Reid, California, USA
Distance from station: ΑΒΑ 19km
Ενημερώθηκε: 31/05/2020 07:50
NOT Current
Μερικώς νεφελώδης
Μερικώς νεφελώδης
 Ανεμος από varies
Ανεμος: varies 7 km/h
Θερμοκρασία: 17°C
Σημείο Δρόσου: 12°C
Υγρασία: 73%
Βαρόμετρο: 1014.9 hPa
Clouds: Μερικώς νεφελώδης
Visibility: 16 km
Cloud details: Μερικώς νεφελώδης 1219 m
2020/05/31 04:50 KRHV 310450Z VRB04KT 10SM SCT040 17/12 A2997 RMK LAST
 
KOAK - Oakland, California, USA
Distance from station: ΒΒΔ 50km
Ενημερώθηκε: 31/05/2020 14:53
Σχεδόν νεφελώδης
Σχεδόν νεφελώδης
 Ανεμος από ΒΒΔ
Ανεμος: ΒΒΔ 9 km/h
Θερμοκρασία: 16°C
Σημείο Δρόσου: 12°C
Υγρασία: 77%
Βαρόμετρο: 1014.6 hPa
Clouds: Σχεδόν νεφελώδης
Visibility: 16 km
Cloud details: Σχεδόν νεφελώδης 518 m
2020/05/31 11:53 KOAK 311153Z 34005KT 10SM BKN017 16/12 A2996 RMK AO2 SLP145 70003 T01560122 10172 20156 56008
KSQL - San Carlos Airpo, California, USA
Distance from station: ΒΔ 34km
Ενημερώθηκε: 31/05/2020 15:15
Σχεδόν νεφελώδης
Σχεδόν νεφελώδης
 Ανεμος από calm
Ανεμος: Απνοια
Θερμοκρασία: 14°C
Σημείο Δρόσου: 12°C
Υγρασία: 88%
Βαρόμετρο: 1014.9 hPa
Clouds: Σχεδόν νεφελώδης
Visibility: 16 km
Cloud details: Σχεδόν νεφελώδης 549 m
2020/05/31 12:15 KSQL 311215Z AUTO 00000KT 10SM BKN018 14/12 A2997 RMK AO2
 
KSFO - San Francisco, California, USA
Distance from station: ΒΔ 49km
Ενημερώθηκε: 31/05/2020 14:56
Few Clouds
Few Clouds
 Ανεμος από ΔΒΔ
Ανεμος: ΔΒΔ 13 km/h
Θερμοκρασία: 13°C
Σημείο Δρόσου: 11°C
Υγρασία: 88%
Βαρόμετρο: 1014.2 hPa
Clouds: Few Clouds
Visibility: 16 km
Cloud details: Few Clouds 610 m
2020/05/31 11:56 KSFO 311156Z 29007KT 10SM FEW020 13/11 A2995 RMK AO2 SLP142 70002 T01280106 10156 20128 56007
KE16 - San Martin, California, USA
Distance from station: ΑΝΑ 43km
Ενημερώθηκε: 31/05/2020 15:05
Συννεφιά
Συννεφιά
 Ανεμος από Β
Ανεμος: Β 6 km/h
Θερμοκρασία: 12°C
Σημείο Δρόσου: 11°C
Υγρασία: 94%
Βαρόμετρο: 1015.2 hPa
Clouds: Συννεφιά
Visibility: 16 km
Cloud details: Συννεφιά 152 m
2020/05/31 12:05 KE16 311205Z AUTO 01003KT 10SM OVC005 12/11 A2998 RMK AO2
 
KWVI - Watsonville, California, USA
Distance from station: ΝΝΑ 44km
Ενημερώθηκε: 31/05/2020 15:02
Few Clouds
Few Clouds
 Ανεμος από ΒΒΔ
Ανεμος: ΒΒΔ 7 km/h
Θερμοκρασία: 12°C
Σημείο Δρόσου: 11°C
Υγρασία: 94%
Βαρόμετρο: 1014.6 hPa
Clouds: Few Clouds
Visibility: 16 km
Cloud details: Few Clouds 61 m
2020/05/31 12:02 KWVI 311202Z AUTO 34004KT 10SM FEW002 12/11 A2996 RMK AO2 T01170106
KHAF - Half Moon Bay, California, USA
Distance from station: ΔΒΔ 50km
Ενημερώθηκε: 31/05/2020 15:15
Σχεδόν νεφελώδης
Σχεδόν νεφελώδης
 Ανεμος από calm
Ανεμος: Απνοια
Θερμοκρασία: 11°C
Σημείο Δρόσου: 10°C
Υγρασία: 94%
Βαρόμετρο: 1014.9 hPa
Clouds: Σχεδόν νεφελώδης
Visibility: 16 km
Cloud details: Σχεδόν νεφελώδης 183 m
Σχεδόν νεφελώδης 579 m
2020/05/31 12:15 KHAF 311215Z AUTO 00000KT 10SM BKN006 BKN019 11/10 A2997 RMK AO2
 
KHWD - Hayward, California, USA
Distance from station: Β 44km
Ενημερώθηκε: 31/05/2020 14:54
Σχεδόν νεφελώδης
Σχεδόν νεφελώδης
 Ανεμος από ΑΒΑ
Ανεμος: ΑΒΑ 7 km/h
Θερμοκρασία: 14°C
Σημείο Δρόσου: 11°C
Υγρασία: 82%
Βαρόμετρο: 1014.2 hPa
Clouds: Σχεδόν νεφελώδης
Visibility: 16 km
Cloud details: Σχεδόν νεφελώδης 549 m
2020/05/31 11:54 KHWD 311154Z 06004KT 10SM BKN018 14/11 A2995 RMK AO2 SLP151 T01440106 10167 20144 56007
KLVK - Livermore, California, USA
Distance from station: ΒΒΑ 51km
Ενημερώθηκε: 31/05/2020 14:53
Αίθριος
Αίθριος
 Ανεμος από ΝΔ
Ανεμος: ΝΔ 6 km/h
Θερμοκρασία: 13°C
Σημείο Δρόσου: 11°C
Υγρασία: 88%
Βαρόμετρο: 1014.2 hPa
Clouds: Αίθριος
Visibility: 16 km
2020/05/31 11:53 KLVK 311153Z AUTO 23003KT 10SM CLR 13/11 A2995 RMK AO2 SLP140 70012 T01330111 10161 20133 56005